Terminal Aerodrome Forecast
Issued by NWS

Home | Current Version | Previous Version | Graphics & Text | Print | Product List | Glossary On
Versions: 1 2 3 4 5 6 7 8 9 10 11 12 13
594
FTUS43 KOAX 210959 AAA
TAFCDR
TAF AMD
KCDR 210959Z 2110/2206 03012KT 6SM -SHSN SCT007 OVC015
      TEMPO 2110/2112 1SM -SN BKN007
     FM211200 36012KT 4SM -SN BKN008 OVC012
     FM211500 34010KT P6SM -SN OVC012
     FM211700 34008KT P6SM SCT020
     FM211900 32008KT P6SM SCT250=

USA.gov is the U.S. government's official web portal to all federal, state and local government web resources and services.